Hartford, Connecticut
Traffic Map
Current Weather Conditions
Hartford, Connecticut
Clear
Clear
79°
Feels Like: 79°
Wind Chill: 79° Ceiling: Unl
Heat Index: 79° Visibility: 10mi
Dew Point: 51° Wind: 5mph
Humidity: 38% Direction: 180° (S)
Pressure: 29.94in Gusts: 0mph
Raw Report DataKHFD 032153Z 18004KT 10SM CLR 26/11 A2994 RMK AO2 SLP137 T02610106
Traffic Incident Summary
Active as of:
Severity:
Category:
InformationThere was an issue retrieving the traffic information for this location. Please try a different location or try again shortly.
Advertisements
Track Severe Weather on mobile